createdAt,value
2023-08-02T07:03:36.598Z,78.20
2023-08-02T07:15:32.237Z,76.00
2023-08-02T07:17:59.854Z,74.60
2023-08-02T07:20:27.357Z,74.70
2023-08-02T07:22:57.850Z,73.60
2023-08-02T07:25:25.373Z,72.80
2023-08-02T07:27:52.831Z,72.50
2023-08-02T07:30:22.368Z,72.60
2023-08-02T07:32:49.621Z,72.30
2023-08-02T07:35:17.383Z,72.70
2023-08-02T07:37:44.674Z,72.70
2023-08-02T07:56:43.955Z,72.70
2023-08-02T07:59:11.220Z,72.50
2023-08-02T08:01:39.171Z,73.00
2023-08-02T08:04:11.050Z,71.70
2023-08-02T08:06:38.446Z,70.60
2023-08-02T08:09:07.584Z,69.80
2023-08-02T08:11:34.786Z,69.30
2023-08-02T08:14:02.086Z,69.00
2023-08-02T08:16:30.042Z,68.30
2023-08-02T08:18:57.398Z,68.20
2023-08-02T08:21:27.230Z,67.80
2023-08-02T08:23:54.744Z,67.80
2023-08-02T08:26:28.316Z,67.80
2023-08-02T08:31:34.628Z,68.00
2023-08-02T08:34:01.879Z,67.90
2023-08-02T08:36:32.767Z,67.90
2023-08-02T08:39:00.229Z,68.40
2023-08-02T08:41:27.399Z,68.20
2023-08-02T08:43:54.715Z,68.70
2023-08-02T08:46:26.752Z,69.10
2023-08-02T08:48:57.646Z,69.20
2023-08-02T08:51:30.979Z,69.20
2023-08-02T08:57:41.592Z,69.30
2023-08-02T09:00:12.800Z,69.20
2023-08-02T09:05:33.567Z,67.60
2023-08-02T09:08:50.724Z,67.00
2023-08-02T09:12:04.681Z,66.20
2023-08-02T09:14:32.133Z,64.40
2023-08-02T09:17:20.706Z,63.80
2023-08-02T09:19:51.106Z,64.00
2023-08-02T09:22:18.186Z,63.70
2023-08-02T09:24:46.406Z,63.00
2023-08-02T09:27:16.156Z,61.50
2023-08-02T09:29:47.713Z,60.50
2023-08-02T09:32:42.181Z,59.10
2023-08-02T09:35:19.981Z,58.80
2023-08-02T09:43:11.019Z,55.20
2023-08-02T09:45:47.293Z,55.00
2023-08-02T09:48:14.550Z,53.80
2023-08-02T09:51:05.306Z,53.50
2023-08-02T09:53:32.948Z,53.90
2023-08-02T10:09:55.244Z,52.20
2023-08-02T10:12:51.125Z,52.30
2023-08-02T10:15:30.616Z,51.30
2023-08-02T10:18:00.489Z,50.40
2023-08-02T10:20:28.499Z,51.40
2023-08-02T10:22:58.308Z,52.10
2023-08-02T10:25:26.180Z,51.40
2023-08-02T10:27:53.815Z,51.00
2023-08-02T10:30:21.251Z,50.90
2023-08-02T10:33:13.587Z,51.00
2023-08-02T10:36:02.624Z,50.40
2023-08-02T10:38:45.951Z,50.10
2023-08-02T10:41:17.612Z,49.80
2023-08-02T10:43:56.904Z,49.10
2023-08-02T10:46:28.346Z,49.40
2023-08-02T10:51:50.670Z,47.80
2023-08-02T11:03:14.253Z,49.00
2023-08-02T11:05:47.535Z,50.30
2023-08-02T11:11:03.510Z,51.00
2023-08-02T11:13:44.197Z,50.60
2023-08-02T11:16:15.293Z,51.10
2023-08-02T11:18:43.452Z,49.20
2023-08-02T11:21:11.591Z,48.60
2023-08-02T11:23:39.560Z,48.20
2023-08-02T11:26:26.584Z,48.10
2023-08-02T11:28:55.291Z,48.20
2023-08-02T11:34:07.876Z,47.90
2023-08-02T11:36:37.825Z,48.10
2023-08-02T11:42:08.064Z,48.80
2023-08-02T11:44:37.013Z,49.30
2023-08-02T11:47:11.790Z,48.50
2023-08-02T11:50:47.411Z,48.60
2023-08-02T11:53:09.869Z,47.30
2023-08-02T11:55:42.788Z,48.50
2023-08-02T12:00:53.280Z,48.40
2023-08-02T12:03:24.481Z,48.90
2023-08-02T12:05:59.898Z,48.40
2023-08-02T12:08:27.630Z,48.60
2023-08-02T12:11:35.157Z,48.90
2023-08-02T12:14:04.042Z,49.00
2023-08-02T12:16:44.793Z,48.60
2023-08-02T12:19:12.606Z,48.90
2023-08-02T12:21:41.744Z,48.90
2023-08-02T12:24:19.462Z,48.70
2023-08-02T12:26:47.668Z,48.70
2023-08-02T12:29:30.530Z,49.10
2023-08-02T12:31:58.122Z,49.40
2023-08-02T12:34:31.424Z,48.90
2023-08-02T12:37:00.817Z,49.40
2023-08-02T12:39:29.293Z,50.00
2023-08-02T12:41:56.691Z,49.70
2023-08-02T12:44:23.925Z,49.70
2023-08-02T13:46:34.396Z,47.80
2023-08-02T13:49:13.761Z,47.50
2023-08-02T14:05:31.195Z,47.70
2023-08-02T14:35:25.362Z,47.50
2023-08-02T14:46:05.453Z,48.80
2023-08-02T14:48:45.510Z,49.10
2023-08-02T14:51:16.243Z,48.70
2023-08-02T23:22:09.142Z,80.40
2023-08-02T23:41:42.522Z,81.50
